To NAV CANADA Home Page Login to a new session Search on AWWS site Feedback and Comments Disclaimer Vers la page française équivalente Tips FAQ What's new on the site To the Forecasts and Observations / NOTAM section To "File a Flight Plan" website Publications and other links Update of the User's profile FIC Telephone Numbers My Weather Data Folder Route Weather Data Regional Weather Data Local Weather Data To the Forecasts and Observations / NOTAM section
Request Generated 08/28/2016 at 16:34:30 UTC . Weather information available at that time is displayed.

METAR/TAF

GREENWOOD/NS    

METAR CYZX 281600Z 26003KT 15SM SCT180 BKN240 22/14 A3030 RMK AC2CI1 WNDY HILL 01004KT SLP260=
METAR CYZX 281500Z 05002KT 15SM FEW020 BKN180 BKN240 20/17 A3031 RMK CF1AC3CI1 WNDY HILL 12004KT SLP264=
METAR CYZX 281400Z 06004KT 15SM FEW012 BKN180 BKN240 18/15 A3033 RMK SF1AC3CI1 WNDY HILL 12006KT SLP271=

TAF CYZX 281130Z 2812/2912 VRB03KT P6SM SCT180
FM282000 02005KT P6SM BKN120
FM290600 VRB03KT P6SM SCT015 BKN080
FM291000 20005KT P6SM -SHRA BKN015 OVC030
RMK NXT FCST BY 281800Z=
Your time UTC time
Weather data provided by Environment Canada and NAV CANADA